createdAt,value
2017-12-04T00:08:18.332Z,11.43
2017-12-04T00:28:50.528Z,9.77
2017-12-04T00:49:28.122Z,9.60
2017-12-04T01:10:02.476Z,9.90
2017-12-04T01:30:34.983Z,11.20
2017-12-04T01:51:10.251Z,10.23
2017-12-04T02:11:46.165Z,10.82
2017-12-04T02:32:24.116Z,9.57
2017-12-04T02:52:57.910Z,9.07
2017-12-04T03:13:31.033Z,7.95
2017-12-04T03:34:08.147Z,7.50
2017-12-04T03:54:41.575Z,10.02
2017-12-04T04:15:17.768Z,9.17
2017-12-04T04:35:53.967Z,11.10
2017-12-04T04:56:26.163Z,10.53
2017-12-04T05:34:59.110Z,9.77
2017-12-04T05:55:34.625Z,9.47
2017-12-04T06:16:08.421Z,7.90
2017-12-04T06:36:44.270Z,8.93
2017-12-04T06:57:18.296Z,9.83
2017-12-04T07:17:50.245Z,10.00
2017-12-04T07:59:09.697Z,9.43
2017-12-04T08:19:45.282Z,7.77
2017-12-04T08:40:16.247Z,5.73
2017-12-04T09:00:50.285Z,6.73
2017-12-04T09:21:27.715Z,5.83
2017-12-04T09:42:02.983Z,5.17
2017-12-04T10:02:36.106Z,5.90
2017-12-04T10:23:10.457Z,6.57
2017-12-04T10:43:47.572Z,5.50
2017-12-04T11:04:24.093Z,5.37
2017-12-04T11:24:55.966Z,5.60
2017-12-04T11:45:29.394Z,4.30
2017-12-04T12:06:04.729Z,5.10
2017-12-04T12:26:37.791Z,5.40
2017-12-04T12:47:09.682Z,4.77
2017-12-04T13:07:45.261Z,5.20
2017-12-04T13:28:20.601Z,5.50
2017-12-04T13:48:56.421Z,5.13
2017-12-04T14:09:30.766Z,5.90
2017-12-04T14:30:07.297Z,5.67
2017-12-04T14:50:42.236Z,6.23
2017-12-04T15:11:25.848Z,5.87
2017-12-04T15:32:01.691Z,5.70
2017-12-04T15:52:32.968Z,5.77
2017-12-04T16:13:06.395Z,6.83
2017-12-04T16:33:42.729Z,6.40
2017-12-04T16:54:16.636Z,6.27
2017-12-04T17:14:49.760Z,6.10
2017-12-04T17:35:22.266Z,6.67
2017-12-04T17:55:57.761Z,9.13
2017-12-04T18:16:31.577Z,8.67
2017-12-04T18:37:04.699Z,8.77
2017-12-04T18:57:39.240Z,8.87
2017-12-04T19:18:12.175Z,9.33
2017-12-04T19:38:47.456Z,10.80
2017-12-04T19:59:25.485Z,8.70
2017-12-04T20:19:58.265Z,13.87
2017-12-04T20:40:31.114Z,9.00
2017-12-04T21:01:03.316Z,8.80
2017-12-04T21:21:37.768Z,8.33
2017-12-04T21:42:08.638Z,9.77
2017-12-04T22:02:42.987Z,8.20
2017-12-04T22:23:17.395Z,7.70
2017-12-04T22:43:50.460Z,8.47
2017-12-04T23:04:20.509Z,8.30
2017-12-04T23:24:58.043Z,7.80
2017-12-04T23:45:31.974Z,8.80
